Main page
METAR-TAF:

METAR-TAF

Airports :

Svalbard Airport. Longyear

Longyearbyen, Norway

latitude: 78-15N, longitude: 015-28E, elevation: 2 m

Current weather observation

The report was made 27 minutes ago, at 05:50 UTC
Wind 4 kt from the North/Northeast, varying between North and Northeast
Temperature 1°C
Humidity 69%
Pressure 992 hPa
Visibility 10 km or more
Few clouds at a height of 3500 ft
Broken clouds at a height of 5500 ft

METAR: ENSB 150550Z 03004KT 360V050 9999 FEW035 BKN055 01/M04 Q0992 RMK WIND 1400FT 05005KT

Time: 08:17 (06:17 UTC)

Forecast

Forecast valid from 15 at 06 UTC to 16 at 06 UTC
Wind 5 kt from the Northeast
Visibility 10 km or more
Few clouds at a height of 3000 ft
Broken clouds at a height of 5000 ft

TAF: ENSB 1506/1606 04005KT 9999 FEW030 BKN050

Weather observations and forecasts of more than 4000 airports (METAR and TAF reports).

The available stations are represented by yellow and red dots on the map.

Hover mouse over dot to see the name of the station.

Then click to see weather observations and forecasts.

To change the map : click on the green buttons with a black cross to zoom in, on the green button with a dash to zoom out, or on the green arrows for adjacent maps.


METAR-TAF: